sensor_id;sensor_type;location;lat;lon;timestamp;P1;durP1;ratioP1;P2;durP2;ratioP2
16662;SDS011;8445;51.270;9.434;2022-09-12T00:01:08;28.40;;;15.67;;
16662;SDS011;8445;51.270;9.434;2022-09-12T00:03:47;27.23;;;15.20;;
16662;SDS011;8445;51.270;9.434;2022-09-12T00:06:21;27.90;;;15.40;;
16662;SDS011;8445;51.270;9.434;2022-09-12T00:08:54;32.37;;;15.73;;
16662;SDS011;8445;51.270;9.434;2022-09-12T00:11:23;28.20;;;15.20;;
16662;SDS011;8445;51.270;9.434;2022-09-12T00:13:50;30.43;;;15.43;;
16662;SDS011;8445;51.270;9.434;2022-09-12T00:16:22;28.07;;;15.53;;
16662;SDS011;8445;51.270;9.434;2022-09-12T00:18:51;33.63;;;16.40;;
16662;SDS011;8445;51.270;9.434;2022-09-12T00:21:18;30.50;;;16.30;;
16662;SDS011;8445;51.270;9.434;2022-09-12T00:23:46;34.03;;;16.07;;
16662;SDS011;8445;51.270;9.434;2022-09-12T00:26:12;32.70;;;15.87;;
16662;SDS011;8445;51.270;9.434;2022-09-12T00:28:39;26.87;;;15.60;;
16662;SDS011;8445;51.270;9.434;2022-09-12T00:31:07;30.53;;;15.57;;
16662;SDS011;8445;51.270;9.434;2022-09-12T00:33:38;32.93;;;16.63;;
16662;SDS011;8445;51.270;9.434;2022-09-12T00:36:06;25.07;;;14.60;;
16662;SDS011;8445;51.270;9.434;2022-09-12T00:38:39;27.10;;;15.27;;
16662;SDS011;8445;51.270;9.434;2022-09-12T00:41:16;29.70;;;15.67;;
16662;SDS011;8445;51.270;9.434;2022-09-12T00:43:47;21.80;;;13.47;;
16662;SDS011;8445;51.270;9.434;2022-09-12T00:49:28;16.70;;;11.68;;
16662;SDS011;8445;51.270;9.434;2022-09-12T00:52:07;14.50;;;10.68;;
16662;SDS011;8445;51.270;9.434;2022-09-12T00:54:56;19.00;;;11.60;;
16662;SDS011;8445;51.270;9.434;2022-09-12T00:57:31;20.10;;;10.27;;
16662;SDS011;8445;51.270;9.434;2022-09-12T01:00:22;17.73;;;11.33;;
16662;SDS011;8445;51.270;9.434;2022-09-12T01:02:55;14.82;;;11.15;;
16662;SDS011;8445;51.270;9.434;2022-09-12T01:05:28;18.23;;;11.57;;
16662;SDS011;8445;51.270;9.434;2022-09-12T01:07:59;26.20;;;11.33;;
16662;SDS011;8445;51.270;9.434;2022-09-12T01:10:27;18.67;;;10.63;;
16662;SDS011;8445;51.270;9.434;2022-09-12T01:12:53;25.37;;;12.17;;
16662;SDS011;8445;51.270;9.434;2022-09-12T01:15:19;23.40;;;12.10;;
16662;SDS011;8445;51.270;9.434;2022-09-12T01:38:47;31.77;;;14.93;;
16662;SDS011;8445;51.270;9.434;2022-09-12T01:41:39;31.90;;;15.33;;
16662;SDS011;8445;51.270;9.434;2022-09-12T01:44:38;29.53;;;13.80;;
16662;SDS011;8445;51.270;9.434;2022-09-12T01:47:44;32.60;;;13.17;;
16662;SDS011;8445;51.270;9.434;2022-09-12T01:50:20;21.27;;;12.67;;
16662;SDS011;8445;51.270;9.434;2022-09-12T01:52:55;24.23;;;12.53;;
16662;SDS011;8445;51.270;9.434;2022-09-12T01:55:31;25.93;;;13.47;;
16662;SDS011;8445;51.270;9.434;2022-09-12T02:00:29;24.70;;;12.03;;
16662;SDS011;8445;51.270;9.434;2022-09-12T02:03:22;22.90;;;12.37;;
16662;SDS011;8445;51.270;9.434;2022-09-12T02:05:56;18.83;;;10.97;;
16662;SDS011;8445;51.270;9.434;2022-09-12T02:08:32;24.13;;;12.33;;
16662;SDS011;8445;51.270;9.434;2022-09-12T02:11:15;29.87;;;12.30;;
16662;SDS011;8445;51.270;9.434;2022-09-12T02:13:45;30.07;;;13.30;;
16662;SDS011;8445;51.270;9.434;2022-09-12T02:16:44;24.53;;;13.00;;
16662;SDS011;8445;51.270;9.434;2022-09-12T02:19:22;27.47;;;12.93;;
16662;SDS011;8445;51.270;9.434;2022-09-12T02:22:00;24.67;;;14.00;;
16662;SDS011;8445;51.270;9.434;2022-09-12T02:24:30;21.97;;;12.27;;
16662;SDS011;8445;51.270;9.434;2022-09-12T02:27:15;29.87;;;11.57;;
16662;SDS011;8445;51.270;9.434;2022-09-12T02:29:52;24.97;;;12.23;;
16662;SDS011;8445;51.270;9.434;2022-09-12T02:35:11;29.03;;;13.97;;
16662;SDS011;8445;51.270;9.434;2022-09-12T02:38:06;29.63;;;14.50;;
16662;SDS011;8445;51.270;9.434;2022-09-12T02:41:01;41.53;;;16.13;;
16662;SDS011;8445;51.270;9.434;2022-09-12T02:43:28;51.03;;;16.57;;
16662;SDS011;8445;51.270;9.434;2022-09-12T02:45:54;41.17;;;16.90;;
16662;SDS011;8445;51.270;9.434;2022-09-12T02:48:26;46.57;;;17.60;;
16662;SDS011;8445;51.270;9.434;2022-09-12T02:50:58;52.17;;;17.13;;
16662;SDS011;8445;51.270;9.434;2022-09-12T02:53:25;44.93;;;18.57;;
16662;SDS011;8445;51.270;9.434;2022-09-12T02:55:51;83.90;;;20.13;;
16662;SDS011;8445;51.270;9.434;2022-09-12T02:58:19;76.80;;;20.57;;
16662;SDS011;8445;51.270;9.434;2022-09-12T03:00:56;98.27;;;20.70;;
16662;SDS011;8445;51.270;9.434;2022-09-12T03:06:44;45.47;;;18.77;;
16662;SDS011;8445;51.270;9.434;2022-09-12T03:12:30;64.33;;;22.27;;
16662;SDS011;8445;51.270;9.434;2022-09-12T03:15:21;62.80;;;19.63;;
16662;SDS011;8445;51.270;9.434;2022-09-12T03:21:37;95.03;;;21.47;;
16662;SDS011;8445;51.270;9.434;2022-09-12T03:24:22;105.27;;;21.70;;
16662;SDS011;8445;51.270;9.434;2022-09-12T03:27:03;112.40;;;22.70;;
16662;SDS011;8445;51.270;9.434;2022-09-12T03:29:38;101.53;;;22.20;;
16662;SDS011;8445;51.270;9.434;2022-09-12T03:32:07;85.17;;;21.27;;
16662;SDS011;8445;51.270;9.434;2022-09-12T03:34:33;53.23;;;19.97;;
16662;SDS011;8445;51.270;9.434;2022-09-12T03:36:59;55.33;;;19.53;;
16662;SDS011;8445;51.270;9.434;2022-09-12T03:39:25;66.30;;;19.67;;
16662;SDS011;8445;51.270;9.434;2022-09-12T03:41:52;56.27;;;17.87;;
16662;SDS011;8445;51.270;9.434;2022-09-12T03:44:20;74.03;;;17.73;;
16662;SDS011;8445;51.270;9.434;2022-09-12T03:46:46;133.53;;;23.33;;
16662;SDS011;8445;51.270;9.434;2022-09-12T03:49:12;155.05;;;22.48;;
16662;SDS011;8445;51.270;9.434;2022-09-12T03:51:38;112.60;;;19.80;;
16662;SDS011;8445;51.270;9.434;2022-09-12T03:54:04;54.77;;;17.57;;
16662;SDS011;8445;51.270;9.434;2022-09-12T03:56:31;98.07;;;18.50;;
16662;SDS011;8445;51.270;9.434;2022-09-12T03:58:56;52.63;;;17.37;;
16662;SDS011;8445;51.270;9.434;2022-09-12T04:01:22;78.40;;;17.80;;
16662;SDS011;8445;51.270;9.434;2022-09-12T04:03:49;53.93;;;16.23;;
16662;SDS011;8445;51.270;9.434;2022-09-12T04:06:20;41.45;;;14.70;;
16662;SDS011;8445;51.270;9.434;2022-09-12T04:08:47;41.38;;;12.57;;
16662;SDS011;8445;51.270;9.434;2022-09-12T04:11:15;47.90;;;12.83;;
16662;SDS011;8445;51.270;9.434;2022-09-12T04:13:43;57.40;;;13.03;;
16662;SDS011;8445;51.270;9.434;2022-09-12T04:16:11;35.20;;;12.67;;
16662;SDS011;8445;51.270;9.434;2022-09-12T04:18:38;35.27;;;13.70;;
16662;SDS011;8445;51.270;9.434;2022-09-12T04:21:05;46.05;;;13.27;;
16662;SDS011;8445;51.270;9.434;2022-09-12T04:23:42;25.37;;;11.57;;
16662;SDS011;8445;51.270;9.434;2022-09-12T04:26:08;42.10;;;12.37;;
16662;SDS011;8445;51.270;9.434;2022-09-12T04:28:37;146.63;;;17.55;;
16662;SDS011;8445;51.270;9.434;2022-09-12T04:31:08;20.48;;;11.52;;
16662;SDS011;8445;51.270;9.434;2022-09-12T04:33:43;45.78;;;11.85;;
16662;SDS011;8445;51.270;9.434;2022-09-12T04:36:10;75.83;;;15.20;;
16662;SDS011;8445;51.270;9.434;2022-09-12T04:38:45;27.97;;;11.53;;
16662;SDS011;8445;51.270;9.434;2022-09-12T04:41:16;34.67;;;13.00;;
16662;SDS011;8445;51.270;9.434;2022-09-12T04:43:51;25.40;;;11.53;;
16662;SDS011;8445;51.270;9.434;2022-09-12T04:46:22;22.60;;;11.70;;
16662;SDS011;8445;51.270;9.434;2022-09-12T04:48:50;26.30;;;12.93;;
16662;SDS011;8445;51.270;9.434;2022-09-12T04:51:24;26.42;;;13.48;;
16662;SDS011;8445;51.270;9.434;2022-09-12T04:53:54;25.30;;;11.47;;
16662;SDS011;8445;51.270;9.434;2022-09-12T04:56:24;22.40;;;12.73;;
16662;SDS011;8445;51.270;9.434;2022-09-12T04:58:52;29.70;;;12.03;;
16662;SDS011;8445;51.270;9.434;2022-09-12T05:01:19;22.80;;;12.00;;
16662;SDS011;8445;51.270;9.434;2022-09-12T05:03:47;22.13;;;12.10;;
16662;SDS011;8445;51.270;9.434;2022-09-12T05:06:15;33.93;;;12.30;;
16662;SDS011;8445;51.270;9.434;2022-09-12T05:08:43;26.05;;;11.35;;
16662;SDS011;8445;51.270;9.434;2022-09-12T05:11:11;26.58;;;12.18;;
16662;SDS011;8445;51.270;9.434;2022-09-12T05:13:43;31.38;;;11.98;;
16662;SDS011;8445;51.270;9.434;2022-09-12T05:16:09;38.05;;;11.80;;
16662;SDS011;8445;51.270;9.434;2022-09-12T05:18:39;25.75;;;11.82;;
16662;SDS011;8445;51.270;9.434;2022-09-12T05:21:05;38.08;;;11.80;;
16662;SDS011;8445;51.270;9.434;2022-09-12T05:23:33;37.55;;;12.38;;
16662;SDS011;8445;51.270;9.434;2022-09-12T05:26:00;23.15;;;10.88;;
16662;SDS011;8445;51.270;9.434;2022-09-12T05:28:30;49.53;;;12.10;;
16662;SDS011;8445;51.270;9.434;2022-09-12T05:31:09;34.33;;;11.93;;
16662;SDS011;8445;51.270;9.434;2022-09-12T05:33:42;37.03;;;11.23;;
16662;SDS011;8445;51.270;9.434;2022-09-12T05:36:13;37.75;;;11.65;;
16662;SDS011;8445;51.270;9.434;2022-09-12T05:38:51;60.85;;;11.85;;
16662;SDS011;8445;51.270;9.434;2022-09-12T05:41:19;22.30;;;11.07;;
16662;SDS011;8445;51.270;9.434;2022-09-12T05:43:53;25.77;;;9.93;;
16662;SDS011;8445;51.270;9.434;2022-09-12T05:46:23;29.52;;;10.32;;
16662;SDS011;8445;51.270;9.434;2022-09-12T05:48:52;24.27;;;11.20;;
16662;SDS011;8445;51.270;9.434;2022-09-12T05:51:19;32.65;;;11.88;;
16662;SDS011;8445;51.270;9.434;2022-09-12T05:53:56;17.98;;;11.25;;
16662;SDS011;8445;51.270;9.434;2022-09-12T05:56:28;19.00;;;10.63;;
16662;SDS011;8445;51.270;9.434;2022-09-12T05:59:05;25.73;;;11.10;;
16662;SDS011;8445;51.270;9.434;2022-09-12T06:01:42;21.20;;;10.77;;
16662;SDS011;8445;51.270;9.434;2022-09-12T06:04:09;21.77;;;10.95;;
16662;SDS011;8445;51.270;9.434;2022-09-12T06:06:39;27.65;;;11.85;;
16662;SDS011;8445;51.270;9.434;2022-09-12T06:09:12;32.45;;;10.65;;
16662;SDS011;8445;51.270;9.434;2022-09-12T06:11:40;28.25;;;10.13;;
16662;SDS011;8445;51.270;9.434;2022-09-12T06:14:06;38.83;;;10.95;;
16662;SDS011;8445;51.270;9.434;2022-09-12T06:16:35;31.83;;;10.52;;
16662;SDS011;8445;51.270;9.434;2022-09-12T06:19:03;28.35;;;9.85;;
16662;SDS011;8445;51.270;9.434;2022-09-12T06:21:32;18.10;;;9.13;;
16662;SDS011;8445;51.270;9.434;2022-09-12T06:24:04;22.38;;;8.45;;
16662;SDS011;8445;51.270;9.434;2022-09-12T06:26:31;11.95;;;8.30;;
16662;SDS011;8445;51.270;9.434;2022-09-12T06:28:58;12.45;;;7.57;;
16662;SDS011;8445;51.270;9.434;2022-09-12T06:31:27;11.90;;;7.43;;
16662;SDS011;8445;51.270;9.434;2022-09-12T06:33:56;13.32;;;7.65;;
16662;SDS011;8445;51.270;9.434;2022-09-12T06:36:29;9.93;;;7.13;;
16662;SDS011;8445;51.270;9.434;2022-09-12T06:39:03;8.10;;;6.00;;
16662;SDS011;8445;51.270;9.434;2022-09-12T06:41:33;7.13;;;5.47;;
16662;SDS011;8445;51.270;9.434;2022-09-12T06:43:59;6.65;;;6.05;;
16662;SDS011;8445;51.270;9.434;2022-09-12T06:46:25;16.98;;;6.75;;
16662;SDS011;8445;51.270;9.434;2022-09-12T06:48:56;11.25;;;5.95;;
16662;SDS011;8445;51.270;9.434;2022-09-12T06:51:25;13.95;;;6.85;;
16662;SDS011;8445;51.270;9.434;2022-09-12T06:53:56;7.93;;;5.70;;
16662;SDS011;8445;51.270;9.434;2022-09-12T06:56:23;6.55;;;5.68;;
16662;SDS011;8445;51.270;9.434;2022-09-12T06:58:51;10.60;;;6.05;;
16662;SDS011;8445;51.270;9.434;2022-09-12T07:03:51;8.32;;;5.28;;
16662;SDS011;8445;51.270;9.434;2022-09-12T07:06:24;7.80;;;4.60;;
16662;SDS011;8445;51.270;9.434;2022-09-12T07:08:59;5.90;;;5.40;;
16662;SDS011;8445;51.270;9.434;2022-09-12T07:11:29;9.02;;;5.03;;
16662;SDS011;8445;51.270;9.434;2022-09-12T07:13:59;10.60;;;5.55;;
16662;SDS011;8445;51.270;9.434;2022-09-12T07:16:27;5.90;;;5.13;;
16662;SDS011;8445;51.270;9.434;2022-09-12T07:18:55;5.70;;;5.18;;
16662;SDS011;8445;51.270;9.434;2022-09-12T07:21:26;6.20;;;5.50;;
16662;SDS011;8445;51.270;9.434;2022-09-12T07:23:53;6.15;;;5.53;;
16662;SDS011;8445;51.270;9.434;2022-09-12T07:26:22;6.22;;;5.63;;
16662;SDS011;8445;51.270;9.434;2022-09-12T07:28:50;9.48;;;6.00;;
16662;SDS011;8445;51.270;9.434;2022-09-12T07:31:18;6.22;;;5.65;;
16662;SDS011;8445;51.270;9.434;2022-09-12T07:33:46;6.80;;;6.20;;
16662;SDS011;8445;51.270;9.434;2022-09-12T07:36:15;6.50;;;5.80;;
16662;SDS011;8445;51.270;9.434;2022-09-12T07:38:43;7.13;;;5.55;;
16662;SDS011;8445;51.270;9.434;2022-09-12T07:41:15;6.85;;;5.95;;
16662;SDS011;8445;51.270;9.434;2022-09-12T07:43:45;6.05;;;5.45;;
16662;SDS011;8445;51.270;9.434;2022-09-12T07:46:12;5.85;;;5.35;;
16662;SDS011;8445;51.270;9.434;2022-09-12T07:48:39;5.60;;;5.10;;
16662;SDS011;8445;51.270;9.434;2022-09-12T07:51:09;5.63;;;5.13;;
16662;SDS011;8445;51.270;9.434;2022-09-12T07:53:37;6.07;;;5.55;;
16662;SDS011;8445;51.270;9.434;2022-09-12T07:56:05;5.88;;;5.38;;
16662;SDS011;8445;51.270;9.434;2022-09-12T07:58:34;5.93;;;5.40;;
16662;SDS011;8445;51.270;9.434;2022-09-12T08:01:12;4.45;;;4.05;;
16662;SDS011;8445;51.270;9.434;2022-09-12T08:03:42;4.90;;;4.40;;
16662;SDS011;8445;51.270;9.434;2022-09-12T08:06:12;5.18;;;4.68;;
16662;SDS011;8445;51.270;9.434;2022-09-12T08:08:44;5.15;;;4.75;;
16662;SDS011;8445;51.270;9.434;2022-09-12T08:11:12;6.63;;;5.63;;
16662;SDS011;8445;51.270;9.434;2022-09-12T08:13:41;6.03;;;5.43;;
16662;SDS011;8445;51.270;9.434;2022-09-12T08:16:11;6.80;;;5.15;;
16662;SDS011;8445;51.270;9.434;2022-09-12T08:18:43;6.03;;;5.47;;
16662;SDS011;8445;51.270;9.434;2022-09-12T08:21:14;7.18;;;6.38;;
16662;SDS011;8445;51.270;9.434;2022-09-12T08:23:55;6.60;;;5.90;;
16662;SDS011;8445;51.270;9.434;2022-09-12T08:26:25;8.27;;;6.97;;
16662;SDS011;8445;51.270;9.434;2022-09-12T08:28:51;14.15;;;8.48;;
16662;SDS011;8445;51.270;9.434;2022-09-12T08:31:18;13.02;;;9.27;;
16662;SDS011;8445;51.270;9.434;2022-09-12T08:33:46;13.00;;;9.02;;
16662;SDS011;8445;51.270;9.434;2022-09-12T08:36:13;10.65;;;8.45;;
16662;SDS011;8445;51.270;9.434;2022-09-12T08:38:43;11.05;;;8.88;;
16662;SDS011;8445;51.270;9.434;2022-09-12T08:52:42;11.88;;;9.57;;
16662;SDS011;8445;51.270;9.434;2022-09-12T08:58:00;11.70;;;9.98;;
16662;SDS011;8445;51.270;9.434;2022-09-12T09:10:09;11.27;;;8.60;;
16662;SDS011;8445;51.270;9.434;2022-09-12T09:16:26;9.43;;;8.18;;
16662;SDS011;8445;51.270;9.434;2022-09-12T09:19:33;9.00;;;8.10;;
16662;SDS011;8445;51.270;9.434;2022-09-12T09:22:06;9.63;;;8.00;;
16662;SDS011;8445;51.270;9.434;2022-09-12T09:24:48;11.25;;;8.13;;
16662;SDS011;8445;51.270;9.434;2022-09-12T09:29:45;8.63;;;7.45;;
16662;SDS011;8445;51.270;9.434;2022-09-12T09:32:18;7.93;;;6.70;;
16662;SDS011;8445;51.270;9.434;2022-09-12T09:34:57;8.40;;;6.93;;
16662;SDS011;8445;51.270;9.434;2022-09-12T09:37:40;8.60;;;6.15;;
16662;SDS011;8445;51.270;9.434;2022-09-12T09:43:20;7.13;;;6.30;;
16662;SDS011;8445;51.270;9.434;2022-09-12T09:45:50;8.30;;;6.53;;
16662;SDS011;8445;51.270;9.434;2022-09-12T09:48:18;7.40;;;4.63;;
16662;SDS011;8445;51.270;9.434;2022-09-12T09:50:55;5.72;;;5.15;;
16662;SDS011;8445;51.270;9.434;2022-09-12T09:53:33;6.00;;;4.60;;
16662;SDS011;8445;51.270;9.434;2022-09-12T09:59:12;5.72;;;4.75;;
16662;SDS011;8445;51.270;9.434;2022-09-12T10:04:34;5.35;;;4.13;;
16662;SDS011;8445;51.270;9.434;2022-09-12T10:07:04;5.60;;;5.00;;
16662;SDS011;8445;51.270;9.434;2022-09-12T10:09:31;5.90;;;4.20;;
16662;SDS011;8445;51.270;9.434;2022-09-12T10:12:00;4.13;;;3.70;;
16662;SDS011;8445;51.270;9.434;2022-09-12T10:14:57;3.80;;;3.45;;
16662;SDS011;8445;51.270;9.434;2022-09-12T10:17:43;6.30;;;4.05;;
16662;SDS011;8445;51.270;9.434;2022-09-12T10:20:29;5.50;;;4.40;;
16662;SDS011;8445;51.270;9.434;2022-09-12T10:23:01;5.38;;;3.47;;
16662;SDS011;8445;51.270;9.434;2022-09-12T10:25:55;3.17;;;2.72;;
16662;SDS011;8445;51.270;9.434;2022-09-12T10:28:32;3.88;;;2.80;;
16662;SDS011;8445;51.270;9.434;2022-09-12T10:31:04;3.70;;;3.40;;
16662;SDS011;8445;51.270;9.434;2022-09-12T10:33:42;3.58;;;3.00;;
16662;SDS011;8445;51.270;9.434;2022-09-12T10:36:17;3.65;;;3.08;;
16662;SDS011;8445;51.270;9.434;2022-09-12T10:38:48;4.40;;;2.97;;
16662;SDS011;8445;51.270;9.434;2022-09-12T10:41:21;4.47;;;3.03;;
16662;SDS011;8445;51.270;9.434;2022-09-12T10:43:49;3.17;;;2.90;;
16662;SDS011;8445;51.270;9.434;2022-09-12T10:49:29;2.85;;;2.33;;
16662;SDS011;8445;51.270;9.434;2022-09-12T10:51:56;2.95;;;2.33;;
16662;SDS011;8445;51.270;9.434;2022-09-12T10:54:41;2.85;;;2.65;;
16662;SDS011;8445;51.270;9.434;2022-09-12T11:00:37;7.32;;;3.65;;
16662;SDS011;8445;51.270;9.434;2022-09-12T11:03:21;3.55;;;3.00;;
16662;SDS011;8445;51.270;9.434;2022-09-12T11:05:57;4.32;;;3.20;;
16662;SDS011;8445;51.270;9.434;2022-09-12T11:08:30;4.15;;;3.13;;
16662;SDS011;8445;51.270;9.434;2022-09-12T11:20:27;6.70;;;4.07;;
16662;SDS011;8445;51.270;9.434;2022-09-12T11:23:55;5.28;;;4.07;;
16662;SDS011;8445;51.270;9.434;2022-09-12T11:29:41;4.60;;;4.18;;
16662;SDS011;8445;51.270;9.434;2022-09-12T11:32:28;5.32;;;4.70;;
16662;SDS011;8445;51.270;9.434;2022-09-12T11:40:56;6.18;;;4.43;;
16662;SDS011;8445;51.270;9.434;2022-09-12T11:43:31;8.27;;;4.65;;
16662;SDS011;8445;51.270;9.434;2022-09-12T11:46:08;5.50;;;5.00;;
16662;SDS011;8445;51.270;9.434;2022-09-12T11:52:00;9.73;;;5.97;;
16662;SDS011;8445;51.270;9.434;2022-09-12T11:57:52;6.25;;;5.65;;
16662;SDS011;8445;51.270;9.434;2022-09-12T12:03:31;7.75;;;5.93;;
16662;SDS011;8445;51.270;9.434;2022-09-12T12:06:16;7.07;;;5.95;;
16662;SDS011;8445;51.270;9.434;2022-09-12T12:08:49;15.93;;;9.55;;
16662;SDS011;8445;51.270;9.434;2022-09-12T12:11:29;12.65;;;10.57;;
16662;SDS011;8445;51.270;9.434;2022-09-12T12:14:46;9.60;;;7.50;;
16662;SDS011;8445;51.270;9.434;2022-09-12T12:17:16;9.68;;;6.32;;
16662;SDS011;8445;51.270;9.434;2022-09-12T12:20:01;8.38;;;6.15;;
16662;SDS011;8445;51.270;9.434;2022-09-12T12:22:29;11.30;;;7.85;;
16662;SDS011;8445;51.270;9.434;2022-09-12T12:25:05;8.88;;;6.63;;
16662;SDS011;8445;51.270;9.434;2022-09-12T12:27:52;7.28;;;6.35;;
16662;SDS011;8445;51.270;9.434;2022-09-12T12:38:02;7.78;;;6.32;;
16662;SDS011;8445;51.270;9.434;2022-09-12T12:40:49;8.25;;;6.35;;
16662;SDS011;8445;51.270;9.434;2022-09-12T12:43:29;7.93;;;6.75;;
16662;SDS011;8445;51.270;9.434;2022-09-12T12:46:05;7.22;;;6.47;;
16662;SDS011;8445;51.270;9.434;2022-09-12T12:48:42;7.47;;;5.68;;
16662;SDS011;8445;51.270;9.434;2022-09-12T12:54:31;7.55;;;5.72;;
16662;SDS011;8445;51.270;9.434;2022-09-12T12:57:44;7.07;;;5.85;;
16662;SDS011;8445;51.270;9.434;2022-09-12T13:02:50;7.55;;;5.75;;
16662;SDS011;8445;51.270;9.434;2022-09-12T13:05:24;9.07;;;7.07;;
16662;SDS011;8445;51.270;9.434;2022-09-12T13:08:39;8.63;;;6.63;;
16662;SDS011;8445;51.270;9.434;2022-09-12T13:10:49;8.20;;;5.35;;
16662;SDS011;8445;51.270;9.434;2022-09-12T13:13:26;4.95;;;4.40;;
16662;SDS011;8445;51.270;9.434;2022-09-12T13:16:56;6.68;;;4.82;;
16662;SDS011;8445;51.270;9.434;2022-09-12T13:19:30;6.22;;;5.07;;
16662;SDS011;8445;51.270;9.434;2022-09-12T13:22:01;6.97;;;5.50;;
16662;SDS011;8445;51.270;9.434;2022-09-12T13:24:29;6.47;;;4.95;;
16662;SDS011;8445;51.270;9.434;2022-09-12T13:26:55;5.72;;;4.95;;
16662;SDS011;8445;51.270;9.434;2022-09-12T13:29:25;5.40;;;4.88;;
16662;SDS011;8445;51.270;9.434;2022-09-12T13:31:59;8.38;;;5.45;;
16662;SDS011;8445;51.270;9.434;2022-09-12T13:34:28;5.43;;;4.82;;
16662;SDS011;8445;51.270;9.434;2022-09-12T13:43:08;7.32;;;5.22;;
16662;SDS011;8445;51.270;9.434;2022-09-12T13:45:39;7.82;;;4.85;;
16662;SDS011;8445;51.270;9.434;2022-09-12T13:48:15;8.93;;;5.47;;
16662;SDS011;8445;51.270;9.434;2022-09-12T13:50:56;10.02;;;5.70;;
16662;SDS011;8445;51.270;9.434;2022-09-12T13:53:28;5.88;;;4.53;;
16662;SDS011;8445;51.270;9.434;2022-09-12T13:56:06;6.05;;;4.70;;
16662;SDS011;8445;51.270;9.434;2022-09-12T13:58:32;7.20;;;5.07;;
16662;SDS011;8445;51.270;9.434;2022-09-12T14:01:00;7.70;;;4.50;;
16662;SDS011;8445;51.270;9.434;2022-09-12T14:09:15;5.43;;;4.47;;
16662;SDS011;8445;51.270;9.434;2022-09-12T14:11:51;6.47;;;4.53;;
16662;SDS011;8445;51.270;9.434;2022-09-12T14:17:14;4.70;;;3.83;;
16662;SDS011;8445;51.270;9.434;2022-09-12T14:19:59;6.55;;;4.35;;
16662;SDS011;8445;51.270;9.434;2022-09-12T14:22:31;4.28;;;3.88;;
16662;SDS011;8445;51.270;9.434;2022-09-12T14:25:00;5.07;;;3.65;;
16662;SDS011;8445;51.270;9.434;2022-09-12T14:27:28;6.15;;;3.95;;
16662;SDS011;8445;51.270;9.434;2022-09-12T14:30:07;5.38;;;4.43;;
16662;SDS011;8445;51.270;9.434;2022-09-12T14:35:36;4.65;;;3.00;;
16662;SDS011;8445;51.270;9.434;2022-09-12T14:40:43;5.60;;;3.85;;
16662;SDS011;8445;51.270;9.434;2022-09-12T14:43:31;4.00;;;3.60;;
16662;SDS011;8445;51.270;9.434;2022-09-12T14:46:05;6.03;;;3.92;;
16662;SDS011;8445;51.270;9.434;2022-09-12T14:49:37;7.28;;;4.22;;
16662;SDS011;8445;51.270;9.434;2022-09-12T14:51:54;5.65;;;4.40;;
16662;SDS011;8445;51.270;9.434;2022-09-12T14:56:54;4.80;;;3.88;;
16662;SDS011;8445;51.270;9.434;2022-09-12T14:59:35;5.32;;;3.58;;
16662;SDS011;8445;51.270;9.434;2022-09-12T15:04:53;5.60;;;3.45;;
16662;SDS011;8445;51.270;9.434;2022-09-12T15:07:35;6.30;;;3.67;;
16662;SDS011;8445;51.270;9.434;2022-09-12T15:10:30;4.82;;;3.78;;
16662;SDS011;8445;51.270;9.434;2022-09-12T15:15:36;4.20;;;3.80;;
16662;SDS011;8445;51.270;9.434;2022-09-12T15:18:08;5.18;;;3.72;;
16662;SDS011;8445;51.270;9.434;2022-09-12T15:20:41;6.03;;;3.60;;
16662;SDS011;8445;51.270;9.434;2022-09-12T15:26:06;5.68;;;3.63;;
16662;SDS011;8445;51.270;9.434;2022-09-12T15:28:40;5.75;;;3.50;;
16662;SDS011;8445;51.270;9.434;2022-09-12T15:31:11;5.95;;;4.10;;
16662;SDS011;8445;51.270;9.434;2022-09-12T15:33:57;3.75;;;3.45;;
16662;SDS011;8445;51.270;9.434;2022-09-12T15:36:46;4.45;;;4.00;;
16662;SDS011;8445;51.270;9.434;2022-09-12T15:39:13;5.38;;;3.22;;
16662;SDS011;8445;51.270;9.434;2022-09-12T15:41:39;3.67;;;3.10;;
16662;SDS011;8445;51.270;9.434;2022-09-12T15:44:06;3.53;;;3.22;;
16662;SDS011;8445;51.270;9.434;2022-09-12T15:46:36;4.00;;;3.40;;
16662;SDS011;8445;51.270;9.434;2022-09-12T15:49:03;3.85;;;3.33;;
16662;SDS011;8445;51.270;9.434;2022-09-12T15:51:33;3.75;;;3.38;;
16662;SDS011;8445;51.270;9.434;2022-09-12T15:54:02;3.30;;;2.95;;
16662;SDS011;8445;51.270;9.434;2022-09-12T15:56:32;3.83;;;3.30;;
16662;SDS011;8445;51.270;9.434;2022-09-12T15:59:00;5.40;;;3.30;;
16662;SDS011;8445;51.270;9.434;2022-09-12T16:01:28;5.25;;;3.42;;
16662;SDS011;8445;51.270;9.434;2022-09-12T16:03:56;4.03;;;3.33;;
16662;SDS011;8445;51.270;9.434;2022-09-12T16:06:22;3.22;;;2.92;;
16662;SDS011;8445;51.270;9.434;2022-09-12T16:08:48;4.75;;;3.33;;
16662;SDS011;8445;51.270;9.434;2022-09-12T16:11:21;4.15;;;3.67;;
16662;SDS011;8445;51.270;9.434;2022-09-12T16:13:53;4.70;;;3.53;;
16662;SDS011;8445;51.270;9.434;2022-09-12T16:16:20;5.07;;;3.53;;
16662;SDS011;8445;51.270;9.434;2022-09-12T16:18:47;6.10;;;3.28;;
16662;SDS011;8445;51.270;9.434;2022-09-12T16:21:12;4.15;;;3.20;;
16662;SDS011;8445;51.270;9.434;2022-09-12T16:23:45;4.35;;;3.72;;
16662;SDS011;8445;51.270;9.434;2022-09-12T16:26:14;5.20;;;4.70;;
16662;SDS011;8445;51.270;9.434;2022-09-12T16:28:41;7.57;;;6.03;;
16662;SDS011;8445;51.270;9.434;2022-09-12T16:31:09;4.13;;;3.72;;
16662;SDS011;8445;51.270;9.434;2022-09-12T16:33:38;3.72;;;3.30;;
16662;SDS011;8445;51.270;9.434;2022-09-12T16:36:06;5.72;;;4.63;;
16662;SDS011;8445;51.270;9.434;2022-09-12T16:38:46;5.47;;;3.60;;
16662;SDS011;8445;51.270;9.434;2022-09-12T16:41:18;4.50;;;3.50;;
16662;SDS011;8445;51.270;9.434;2022-09-12T16:43:50;4.60;;;3.60;;
16662;SDS011;8445;51.270;9.434;2022-09-12T16:46:21;6.85;;;3.40;;
16662;SDS011;8445;51.270;9.434;2022-09-12T16:48:55;4.82;;;3.45;;
16662;SDS011;8445;51.270;9.434;2022-09-12T16:51:23;5.40;;;4.82;;
16662;SDS011;8445;51.270;9.434;2022-09-12T16:53:53;4.40;;;3.58;;
16662;SDS011;8445;51.270;9.434;2022-09-12T16:56:20;5.00;;;3.83;;
16662;SDS011;8445;51.270;9.434;2022-09-12T16:58:46;4.43;;;3.72;;
16662;SDS011;8445;51.270;9.434;2022-09-12T17:01:13;4.65;;;3.70;;
16662;SDS011;8445;51.270;9.434;2022-09-12T17:03:42;4.78;;;4.13;;
16662;SDS011;8445;51.270;9.434;2022-09-12T17:06:12;7.15;;;5.22;;
16662;SDS011;8445;51.270;9.434;2022-09-12T17:08:43;7.10;;;5.35;;
16662;SDS011;8445;51.270;9.434;2022-09-12T17:11:19;5.25;;;4.65;;
16662;SDS011;8445;51.270;9.434;2022-09-12T17:13:51;7.32;;;4.55;;
16662;SDS011;8445;51.270;9.434;2022-09-12T17:16:20;5.60;;;4.35;;
16662;SDS011;8445;51.270;9.434;2022-09-12T17:18:47;4.72;;;4.22;;
16662;SDS011;8445;51.270;9.434;2022-09-12T17:21:15;4.75;;;3.83;;
16662;SDS011;8445;51.270;9.434;2022-09-12T17:23:42;5.78;;;4.05;;
16662;SDS011;8445;51.270;9.434;2022-09-12T17:26:09;7.80;;;3.80;;
16662;SDS011;8445;51.270;9.434;2022-09-12T17:28:37;7.00;;;4.00;;
16662;SDS011;8445;51.270;9.434;2022-09-12T17:31:07;4.78;;;3.80;;
16662;SDS011;8445;51.270;9.434;2022-09-12T17:33:36;5.70;;;4.45;;
16662;SDS011;8445;51.270;9.434;2022-09-12T17:36:04;5.47;;;4.03;;
16662;SDS011;8445;51.270;9.434;2022-09-12T17:38:37;6.30;;;4.57;;
16662;SDS011;8445;51.270;9.434;2022-09-12T17:41:25;7.57;;;5.97;;
16662;SDS011;8445;51.270;9.434;2022-09-12T17:43:56;8.18;;;6.45;;
16662;SDS011;8445;51.270;9.434;2022-09-12T17:46:32;7.13;;;6.43;;
16662;SDS011;8445;51.270;9.434;2022-09-12T17:49:01;8.77;;;7.15;;
16662;SDS011;8445;51.270;9.434;2022-09-12T17:51:31;8.13;;;6.28;;
16662;SDS011;8445;51.270;9.434;2022-09-12T17:53:57;10.85;;;5.97;;
16662;SDS011;8445;51.270;9.434;2022-09-12T17:56:39;5.18;;;4.30;;
16662;SDS011;8445;51.270;9.434;2022-09-12T17:59:07;6.25;;;4.80;;
16662;SDS011;8445;51.270;9.434;2022-09-12T18:01:39;6.03;;;4.18;;
16662;SDS011;8445;51.270;9.434;2022-09-12T18:04:24;5.63;;;4.97;;
16662;SDS011;8445;51.270;9.434;2022-09-12T18:06:51;8.23;;;5.57;;